SBI5542 UCFM-UNNT
Flight info
| Callsign | SBI5542 |
|---|---|
| Flight time | 1h 59m |
| Altitude | 35000 |
| Route | UMLOD2 UMLOD L143 ELSUT G121 RUBID G831 ORPAS ORPAS1M |
| Aircraft | A321/M-SDE3FGHIRWY/LB1 |
Departure
| Time | 2026-04-15 11:06 |
|---|---|
| Airport | Manas International Airport (UCFM) |
Arrival
| Time | 2026-04-15 13:05 |
|---|---|
| Airport | Novosibirsk Tolmachevo Airport (UNNT) |
| Time | Latitude | Longitude | Altitude | Speed | Heading |
|---|---|---|---|---|---|
| 2026-04-15 10:28 | 43.05538 | 74.47165 | 2069 ft | 0 kts | 169° |
| 2026-04-15 10:53 | 43.05544 | 74.47163 | 2068 ft | 4 kts | 167° |
| 2026-04-15 10:53 | 43.05569 | 74.47151 | 2069 ft | 4 kts | 146° |
| 2026-04-15 10:53 | 43.05588 | 74.47127 | 2069 ft | 4 kts | 119° |
| 2026-04-15 10:54 | 43.05597 | 74.47093 | 2069 ft | 4 kts | 92° |
| 2026-04-15 10:54 | 43.05596 | 74.47070 | 2069 ft | 0 kts | 81° |
| 2026-04-15 10:58 | 43.05602 | 74.47107 | 2069 ft | 8 kts | 68° |
| 2026-04-15 10:58 | 43.05649 | 74.47124 | 2069 ft | 7 kts | 353° |
| 2026-04-15 10:58 | 43.05688 | 74.47135 | 2069 ft | 5 kts | 23° |
| 2026-04-15 10:59 | 43.05731 | 74.47163 | 2069 ft | 11 kts | 19° |
| 2026-04-15 10:59 | 43.05775 | 74.47236 | 2069 ft | 9 kts | 73° |
| 2026-04-15 10:59 | 43.05802 | 74.47302 | 2069 ft | 7 kts | 37° |
| 2026-04-15 10:59 | 43.05837 | 74.47339 | 2069 ft | 6 kts | 37° |
| 2026-04-15 11:00 | 43.05873 | 74.47422 | 2069 ft | 15 kts | 75° |
| 2026-04-15 11:00 | 43.05899 | 74.47601 | 2069 ft | 24 kts | 79° |
| 2026-04-15 11:00 | 43.05931 | 74.47838 | 2068 ft | 25 kts | 81° |
| 2026-04-15 11:00 | 43.05959 | 74.48063 | 2069 ft | 23 kts | 80° |
| 2026-04-15 11:01 | 43.05985 | 74.48272 | 2068 ft | 21 kts | 80° |
| 2026-04-15 11:01 | 43.06006 | 74.48433 | 2069 ft | 10 kts | 76° |
| 2026-04-15 11:01 | 43.06040 | 74.48506 | 2068 ft | 8 kts | 50° |
| 2026-04-15 11:01 | 43.06073 | 74.48560 | 2068 ft | 7 kts | 50° |
| 2026-04-15 11:02 | 43.06111 | 74.48620 | 2068 ft | 10 kts | 49° |
| 2026-04-15 11:02 | 43.06150 | 74.48684 | 2068 ft | 8 kts | 49° |
| 2026-04-15 11:02 | 43.06184 | 74.48738 | 2068 ft | 7 kts | 49° |
| 2026-04-15 11:02 | 43.06232 | 74.48815 | 2066 ft | 15 kts | 51° |
| 2026-04-15 11:03 | 43.06284 | 74.48973 | 2067 ft | 22 kts | 80° |
| 2026-04-15 11:03 | 43.06315 | 74.49207 | 2067 ft | 29 kts | 80° |
| 2026-04-15 11:03 | 43.06353 | 74.49502 | 2070 ft | 33 kts | 79° |
| 2026-04-15 11:03 | 43.06392 | 74.49794 | 2072 ft | 28 kts | 80° |
| 2026-04-15 11:04 | 43.06423 | 74.50030 | 2070 ft | 18 kts | 80° |
| 2026-04-15 11:04 | 43.06424 | 74.50136 | 2070 ft | 9 kts | 106° |
| 2026-04-15 11:04 | 43.06400 | 74.50206 | 2070 ft | 7 kts | 115° |
| 2026-04-15 11:04 | 43.06401 | 74.50264 | 2070 ft | 6 kts | 52° |
| 2026-04-15 11:05 | 43.06435 | 74.50253 | 2070 ft | 8 kts | 311° |
| 2026-04-15 11:05 | 43.06438 | 74.50162 | 2070 ft | 10 kts | 261° |
| 2026-04-15 11:05 | 43.06420 | 74.50022 | 2070 ft | 31 kts | 260° |
| 2026-04-15 11:05 | 43.06343 | 74.49417 | 2070 ft | 96 kts | 260° |
| 2026-04-15 11:06 | 43.06194 | 74.48277 | 2071 ft | 145 kts | 260° |
| 2026-04-15 11:06 | 43.06002 | 74.46750 | 2182 ft | 172 kts | 262° |
| 2026-04-15 11:06 | 43.05811 | 74.45201 | 3002 ft | 160 kts | 264° |
| 2026-04-15 11:06 | 43.05671 | 74.43742 | 3731 ft | 150 kts | 268° |
| 2026-04-15 11:07 | 43.05943 | 74.42395 | 4137 ft | 152 kts | 304° |
| 2026-04-15 11:07 | 43.06666 | 74.41283 | 4383 ft | 167 kts | 315° |
| 2026-04-15 11:07 | 43.07631 | 74.40231 | 4533 ft | 189 kts | 324° |
| 2026-04-15 11:07 | 43.08876 | 74.39381 | 4674 ft | 212 kts | 336° |
| 2026-04-15 11:08 | 43.10437 | 74.39162 | 4784 ft | 246 kts | 6° |
| 2026-04-15 11:08 | 43.12024 | 74.40341 | 5137 ft | 277 kts | 44° |
| 2026-04-15 11:08 | 43.13143 | 74.42560 | 5769 ft | 288 kts | 57° |
| 2026-04-15 11:08 | 43.14058 | 74.45023 | 6477 ft | 293 kts | 62° |
| 2026-04-15 11:09 | 43.14893 | 74.47580 | 7183 ft | 295 kts | 63° |
| 2026-04-15 11:09 | 43.15721 | 74.50180 | 7853 ft | 299 kts | 63° |
| 2026-04-15 11:09 | 43.16573 | 74.52808 | 8480 ft | 303 kts | 63° |
| 2026-04-15 11:09 | 43.17439 | 74.55405 | 9212 ft | 305 kts | 63° |
| 2026-04-15 11:10 | 43.18345 | 74.58057 | 9821 ft | 310 kts | 64° |
| 2026-04-15 11:10 | 43.19285 | 74.60761 | 10253 ft | 323 kts | 64° |
| 2026-04-15 11:10 | 43.20291 | 74.63623 | 10393 ft | 344 kts | 64° |
| 2026-04-15 11:10 | 43.21362 | 74.66663 | 10506 ft | 365 kts | 64° |
| 2026-04-15 11:11 | 43.22489 | 74.69869 | 10731 ft | 380 kts | 64° |
| 2026-04-15 11:11 | 43.23646 | 74.73169 | 11223 ft | 387 kts | 65° |
| 2026-04-15 11:11 | 43.24813 | 74.76501 | 11876 ft | 389 kts | 64° |
| 2026-04-15 11:11 | 43.25987 | 74.79862 | 12395 ft | 395 kts | 65° |
| 2026-04-15 11:12 | 43.27177 | 74.83273 | 13028 ft | 397 kts | 65° |
| 2026-04-15 11:12 | 43.28368 | 74.86697 | 13673 ft | 400 kts | 66° |
| 2026-04-15 11:12 | 43.29571 | 74.90158 | 14168 ft | 405 kts | 65° |
| 2026-04-15 11:12 | 43.30786 | 74.93649 | 14723 ft | 406 kts | 65° |
| 2026-04-15 11:13 | 43.32005 | 74.97156 | 15255 ft | 409 kts | 65° |
| 2026-04-15 11:13 | 43.33237 | 75.00701 | 15735 ft | 413 kts | 65° |
| 2026-04-15 11:13 | 43.34476 | 75.04284 | 16268 ft | 415 kts | 65° |
| 2026-04-15 11:13 | 43.35715 | 75.07879 | 16734 ft | 419 kts | 65° |
| 2026-04-15 11:14 | 43.37078 | 75.11440 | 17141 ft | 423 kts | 57° |
| 2026-04-15 11:14 | 43.38846 | 75.14696 | 17615 ft | 426 kts | 47° |
| 2026-04-15 11:14 | 43.40826 | 75.17737 | 18076 ft | 429 kts | 47° |
| 2026-04-15 11:14 | 43.42823 | 75.20813 | 18493 ft | 432 kts | 47° |
| 2026-04-15 11:15 | 43.44801 | 75.23871 | 18927 ft | 434 kts | 47° |
| 2026-04-15 11:15 | 43.46810 | 75.26979 | 19360 ft | 436 kts | 46° |
| 2026-04-15 11:15 | 43.48830 | 75.30104 | 19778 ft | 438 kts | 46° |
| 2026-04-15 11:15 | 43.50857 | 75.33244 | 20197 ft | 440 kts | 46° |
| 2026-04-15 11:16 | 43.52901 | 75.36412 | 20588 ft | 442 kts | 46° |
| 2026-04-15 11:16 | 43.54946 | 75.39581 | 21006 ft | 444 kts | 46° |
| 2026-04-15 11:16 | 43.57004 | 75.42773 | 21427 ft | 446 kts | 46° |
| 2026-04-15 11:16 | 43.59069 | 75.45983 | 21870 ft | 448 kts | 46° |
| 2026-04-15 11:17 | 43.61137 | 75.49204 | 22288 ft | 450 kts | 46° |
| 2026-04-15 11:17 | 43.63178 | 75.52494 | 22678 ft | 453 kts | 50° |
| 2026-04-15 11:17 | 43.64912 | 75.56144 | 23068 ft | 458 kts | 58° |
| 2026-04-15 11:17 | 43.66515 | 75.59953 | 23459 ft | 460 kts | 58° |
| 2026-04-15 11:18 | 43.68127 | 75.63779 | 23797 ft | 462 kts | 57° |
| 2026-04-15 11:18 | 43.69749 | 75.67629 | 24098 ft | 465 kts | 57° |
| 2026-04-15 11:18 | 43.71380 | 75.71494 | 24403 ft | 467 kts | 57° |
| 2026-04-15 11:18 | 43.73021 | 75.75385 | 24696 ft | 470 kts | 57° |
| 2026-04-15 11:19 | 43.74648 | 75.79248 | 24971 ft | 472 kts | 57° |
| 2026-04-15 11:19 | 43.76300 | 75.83182 | 25292 ft | 474 kts | 57° |
| 2026-04-15 11:19 | 43.77961 | 75.87138 | 25597 ft | 476 kts | 57° |
| 2026-04-15 11:19 | 43.79625 | 75.91111 | 25891 ft | 478 kts | 57° |
| 2026-04-15 11:20 | 43.81294 | 75.95103 | 26171 ft | 481 kts | 57° |
| 2026-04-15 11:20 | 43.82969 | 75.99118 | 26450 ft | 483 kts | 57° |
| 2026-04-15 11:20 | 43.84651 | 76.03160 | 26722 ft | 485 kts | 57° |
| 2026-04-15 11:20 | 43.86338 | 76.07219 | 26984 ft | 487 kts | 57° |
| 2026-04-15 11:21 | 43.88029 | 76.11291 | 27258 ft | 489 kts | 57° |
| 2026-04-15 11:21 | 43.89729 | 76.15389 | 27544 ft | 491 kts | 57° |
| 2026-04-15 11:21 | 43.91430 | 76.19508 | 27841 ft | 493 kts | 57° |
| 2026-04-15 11:21 | 43.93135 | 76.23645 | 28114 ft | 495 kts | 57° |
| 2026-04-15 11:22 | 43.95037 | 76.27605 | 28364 ft | 493 kts | 48° |
| 2026-04-15 11:22 | 43.97327 | 76.31105 | 28704 ft | 487 kts | 39° |
| 2026-04-15 11:22 | 43.99932 | 76.34071 | 29064 ft | 482 kts | 30° |
| 2026-04-15 11:22 | 44.02789 | 76.36456 | 29376 ft | 477 kts | 21° |
| 2026-04-15 11:23 | 44.05820 | 76.38249 | 29708 ft | 472 kts | 16° |
| 2026-04-15 11:23 | 44.08888 | 76.39888 | 30037 ft | 472 kts | 16° |
| 2026-04-15 11:23 | 44.11910 | 76.41511 | 30333 ft | 472 kts | 16° |
| 2026-04-15 11:23 | 44.14965 | 76.43160 | 30639 ft | 471 kts | 16° |
| 2026-04-15 11:24 | 44.18017 | 76.44809 | 30950 ft | 470 kts | 16° |
| 2026-04-15 11:24 | 44.21067 | 76.46460 | 31266 ft | 470 kts | 16° |
| 2026-04-15 11:24 | 44.24111 | 76.48111 | 31561 ft | 470 kts | 16° |
| 2026-04-15 11:24 | 44.27153 | 76.49766 | 31883 ft | 469 kts | 16° |
| 2026-04-15 11:25 | 44.30190 | 76.51424 | 32199 ft | 469 kts | 16° |
| 2026-04-15 11:25 | 44.33226 | 76.53085 | 32521 ft | 468 kts | 16° |
| 2026-04-15 11:25 | 44.36252 | 76.54740 | 32837 ft | 467 kts | 16° |
| 2026-04-15 11:25 | 44.39279 | 76.56392 | 33161 ft | 466 kts | 16° |
| 2026-04-15 11:26 | 44.42299 | 76.58038 | 33479 ft | 466 kts | 16° |
| 2026-04-15 11:26 | 44.45313 | 76.59678 | 33785 ft | 465 kts | 16° |
| 2026-04-15 11:26 | 44.48325 | 76.61319 | 34058 ft | 464 kts | 16° |
| 2026-04-15 11:26 | 44.51332 | 76.62962 | 34313 ft | 464 kts | 16° |
| 2026-04-15 11:27 | 44.54333 | 76.64613 | 34564 ft | 463 kts | 16° |
| 2026-04-15 11:27 | 44.57335 | 76.66269 | 34805 ft | 463 kts | 16° |
| 2026-04-15 11:27 | 44.63318 | 76.69569 | 34906 ft | 461 kts | 16° |
| 2026-04-15 11:28 | 44.69245 | 76.72825 | 34898 ft | 460 kts | 16° |
| 2026-04-15 11:28 | 44.75203 | 76.76109 | 34901 ft | 460 kts | 16° |
| 2026-04-15 11:29 | 44.81158 | 76.79408 | 34916 ft | 460 kts | 16° |
| 2026-04-15 11:29 | 44.87126 | 76.82723 | 34898 ft | 461 kts | 16° |
| 2026-04-15 11:30 | 44.93087 | 76.86036 | 34900 ft | 461 kts | 16° |
| 2026-04-15 11:30 | 44.99057 | 76.89373 | 34902 ft | 461 kts | 16° |
| 2026-04-15 11:31 | 45.05030 | 76.92695 | 34921 ft | 461 kts | 16° |
| 2026-04-15 11:31 | 45.11007 | 76.96031 | 34918 ft | 462 kts | 16° |
| 2026-04-15 11:32 | 45.16976 | 76.99387 | 34917 ft | 462 kts | 16° |
| 2026-04-15 11:32 | 45.22944 | 77.02754 | 34915 ft | 462 kts | 16° |
| 2026-04-15 11:33 | 45.28885 | 77.06101 | 34924 ft | 462 kts | 16° |
| 2026-04-15 11:33 | 45.34860 | 77.09477 | 34914 ft | 463 kts | 16° |
| 2026-04-15 11:34 | 45.40849 | 77.12870 | 34920 ft | 463 kts | 16° |
| 2026-04-15 11:34 | 45.46831 | 77.16267 | 34934 ft | 463 kts | 16° |
| 2026-04-15 11:35 | 45.52837 | 77.19678 | 34916 ft | 469 kts | 16° |
| 2026-04-15 11:35 | 45.58936 | 77.23146 | 34918 ft | 473 kts | 16° |
| 2026-04-15 11:36 | 45.65053 | 77.26652 | 34921 ft | 474 kts | 16° |
| 2026-04-15 11:36 | 45.71171 | 77.30163 | 34919 ft | 474 kts | 16° |
| 2026-04-15 11:37 | 45.77299 | 77.33679 | 34928 ft | 474 kts | 16° |
| 2026-04-15 11:37 | 45.83419 | 77.37200 | 34940 ft | 474 kts | 16° |
| 2026-04-15 11:38 | 45.88502 | 77.40132 | 34969 ft | 474 kts | 16° |
| 2026-04-15 11:38 | 45.94614 | 77.43664 | 34961 ft | 474 kts | 16° |
| 2026-04-15 11:39 | 46.00726 | 77.47211 | 34948 ft | 474 kts | 16° |
| 2026-04-15 11:39 | 46.06832 | 77.50767 | 34942 ft | 474 kts | 16° |
| 2026-04-15 11:40 | 46.12942 | 77.54329 | 34961 ft | 474 kts | 15° |
| 2026-04-15 11:40 | 46.19051 | 77.57886 | 34961 ft | 474 kts | 15° |
| 2026-04-15 11:41 | 46.25161 | 77.61454 | 34962 ft | 474 kts | 16° |
| 2026-04-15 11:41 | 46.31269 | 77.65034 | 34996 ft | 474 kts | 15° |
| 2026-04-15 11:42 | 46.37369 | 77.68617 | 34986 ft | 473 kts | 15° |
| 2026-04-15 11:42 | 46.43416 | 77.72180 | 34979 ft | 472 kts | 15° |
| 2026-04-15 11:43 | 46.49493 | 77.75768 | 34975 ft | 472 kts | 15° |
| 2026-04-15 11:43 | 46.55575 | 77.79361 | 34972 ft | 471 kts | 15° |
| 2026-04-15 11:44 | 46.61645 | 77.82958 | 34977 ft | 471 kts | 15° |
| 2026-04-15 11:44 | 46.67715 | 77.86572 | 34973 ft | 471 kts | 15° |
| 2026-04-15 11:45 | 46.73777 | 77.90199 | 34967 ft | 471 kts | 15° |
| 2026-04-15 11:45 | 46.79841 | 77.93837 | 34980 ft | 471 kts | 15° |
| 2026-04-15 11:46 | 46.85905 | 77.97480 | 34968 ft | 471 kts | 15° |
| 2026-04-15 11:46 | 46.91963 | 78.01129 | 34963 ft | 471 kts | 15° |
| 2026-04-15 11:47 | 46.98024 | 78.04796 | 34978 ft | 471 kts | 15° |
| 2026-04-15 11:47 | 47.04082 | 78.08463 | 34964 ft | 471 kts | 15° |
| 2026-04-15 11:48 | 47.10098 | 78.12099 | 34953 ft | 471 kts | 15° |
| 2026-04-15 11:48 | 47.16155 | 78.15773 | 34950 ft | 471 kts | 15° |
| 2026-04-15 11:49 | 47.22211 | 78.19470 | 34972 ft | 471 kts | 15° |
| 2026-04-15 11:49 | 47.28259 | 78.23181 | 34946 ft | 471 kts | 15° |
| 2026-04-15 11:50 | 47.34312 | 78.26890 | 34952 ft | 471 kts | 15° |
| 2026-04-15 11:50 | 47.40356 | 78.30608 | 34952 ft | 471 kts | 15° |
| 2026-04-15 11:51 | 47.46406 | 78.34342 | 34955 ft | 471 kts | 15° |
| 2026-04-15 11:51 | 47.52454 | 78.38077 | 34943 ft | 471 kts | 15° |
| 2026-04-15 11:52 | 47.58507 | 78.41814 | 34931 ft | 472 kts | 15° |
| 2026-04-15 11:52 | 47.64568 | 78.45562 | 34952 ft | 472 kts | 15° |
| 2026-04-15 11:53 | 47.70624 | 78.49320 | 34940 ft | 472 kts | 15° |
| 2026-04-15 11:53 | 47.76641 | 78.53078 | 34931 ft | 472 kts | 15° |
| 2026-04-15 11:54 | 47.82700 | 78.56876 | 34930 ft | 473 kts | 15° |
| 2026-04-15 11:54 | 47.88771 | 78.60675 | 34948 ft | 473 kts | 15° |
| 2026-04-15 11:55 | 47.94839 | 78.64484 | 34933 ft | 473 kts | 15° |
| 2026-04-15 11:55 | 48.00914 | 78.68298 | 34923 ft | 473 kts | 15° |
| 2026-04-15 11:56 | 48.06984 | 78.72120 | 34921 ft | 474 kts | 15° |
| 2026-04-15 11:56 | 48.13058 | 78.75950 | 34932 ft | 474 kts | 15° |
| 2026-04-15 11:57 | 48.22160 | 78.81725 | 34936 ft | 474 kts | 15° |
| 2026-04-15 11:58 | 48.28225 | 78.85591 | 34929 ft | 474 kts | 15° |
| 2026-04-15 11:58 | 48.34301 | 78.89463 | 34952 ft | 474 kts | 15° |
| 2026-04-15 11:59 | 48.40370 | 78.93341 | 34934 ft | 474 kts | 15° |
| 2026-04-15 11:59 | 48.46402 | 78.97207 | 34932 ft | 474 kts | 15° |
| 2026-04-15 12:00 | 48.52476 | 79.01105 | 34930 ft | 474 kts | 15° |
| 2026-04-15 12:00 | 48.58545 | 79.05005 | 34964 ft | 474 kts | 15° |
| 2026-04-15 12:01 | 48.64619 | 79.08919 | 34957 ft | 474 kts | 15° |
| 2026-04-15 12:01 | 48.70683 | 79.12842 | 34955 ft | 474 kts | 15° |
| 2026-04-15 12:02 | 48.76747 | 79.16772 | 34957 ft | 474 kts | 15° |
| 2026-04-15 12:02 | 48.82801 | 79.20714 | 34953 ft | 473 kts | 15° |
| 2026-04-15 12:03 | 48.88855 | 79.24664 | 34959 ft | 474 kts | 15° |
| 2026-04-15 12:03 | 48.94912 | 79.28619 | 34972 ft | 473 kts | 15° |
| 2026-04-15 12:04 | 49.00962 | 79.32580 | 34965 ft | 473 kts | 15° |
| 2026-04-15 12:04 | 49.06972 | 79.36527 | 34998 ft | 473 kts | 15° |
| 2026-04-15 12:05 | 49.13007 | 79.40509 | 34983 ft | 472 kts | 15° |
| 2026-04-15 12:05 | 49.19034 | 79.44497 | 34978 ft | 472 kts | 15° |
| 2026-04-15 12:06 | 49.25063 | 79.48485 | 34981 ft | 472 kts | 15° |
| 2026-04-15 12:06 | 49.31094 | 79.52482 | 35003 ft | 472 kts | 14° |
| 2026-04-15 12:07 | 49.37111 | 79.56490 | 34998 ft | 471 kts | 15° |
| 2026-04-15 12:07 | 49.43124 | 79.60504 | 34994 ft | 471 kts | 14° |
| 2026-04-15 12:08 | 49.49139 | 79.64520 | 34991 ft | 471 kts | 15° |
| 2026-04-15 12:08 | 49.55094 | 79.68520 | 34983 ft | 469 kts | 14° |
| 2026-04-15 12:09 | 49.61077 | 79.72556 | 34981 ft | 469 kts | 14° |
| 2026-04-15 12:09 | 49.67056 | 79.76596 | 34983 ft | 469 kts | 14° |
| 2026-04-15 12:10 | 49.73042 | 79.80652 | 34988 ft | 469 kts | 14° |
| 2026-04-15 12:10 | 49.79018 | 79.84710 | 34990 ft | 469 kts | 14° |
| 2026-04-15 12:11 | 49.84982 | 79.88778 | 34988 ft | 468 kts | 14° |
| 2026-04-15 12:11 | 49.90952 | 79.92854 | 34989 ft | 469 kts | 14° |
| 2026-04-15 12:12 | 49.96917 | 79.96933 | 34994 ft | 469 kts | 14° |
| 2026-04-15 12:12 | 50.02835 | 80.01007 | 34996 ft | 468 kts | 14° |
| 2026-04-15 12:13 | 50.08779 | 80.05103 | 34987 ft | 467 kts | 14° |
| 2026-04-15 12:13 | 50.14722 | 80.09204 | 34987 ft | 467 kts | 14° |
| 2026-04-15 12:14 | 50.20670 | 80.13310 | 34982 ft | 467 kts | 14° |
| 2026-04-15 12:14 | 50.26607 | 80.17419 | 34987 ft | 466 kts | 13° |
| 2026-04-15 12:15 | 50.32523 | 80.21536 | 34980 ft | 465 kts | 13° |
| 2026-04-15 12:15 | 50.38430 | 80.25745 | 34978 ft | 468 kts | 15° |
| 2026-04-15 12:16 | 50.44285 | 80.30257 | 34980 ft | 470 kts | 16° |
| 2026-04-15 12:16 | 50.50126 | 80.34857 | 35005 ft | 470 kts | 15° |
| 2026-04-15 12:17 | 50.55976 | 80.39412 | 34993 ft | 469 kts | 15° |
| 2026-04-15 12:17 | 50.61793 | 80.43893 | 34983 ft | 468 kts | 15° |
| 2026-04-15 12:18 | 50.67646 | 80.48408 | 34980 ft | 469 kts | 15° |
| 2026-04-15 12:18 | 50.73499 | 80.52955 | 34998 ft | 469 kts | 15° |
| 2026-04-15 12:19 | 50.79336 | 80.57511 | 34969 ft | 468 kts | 15° |
| 2026-04-15 12:19 | 50.85173 | 80.62084 | 34988 ft | 468 kts | 15° |
| 2026-04-15 12:20 | 50.91001 | 80.66657 | 34980 ft | 467 kts | 15° |
| 2026-04-15 12:20 | 50.96833 | 80.71230 | 34976 ft | 467 kts | 15° |
| 2026-04-15 12:21 | 51.02659 | 80.75808 | 34999 ft | 467 kts | 15° |
| 2026-04-15 12:21 | 51.08487 | 80.80411 | 34989 ft | 468 kts | 15° |
| 2026-04-15 12:22 | 51.14309 | 80.85018 | 34985 ft | 467 kts | 15° |
| 2026-04-15 12:22 | 51.20092 | 80.89622 | 34981 ft | 468 kts | 15° |
| 2026-04-15 12:23 | 51.25912 | 80.94256 | 34979 ft | 467 kts | 14° |
| 2026-04-15 12:23 | 51.31720 | 80.98830 | 34975 ft | 465 kts | 14° |
| 2026-04-15 12:24 | 51.37529 | 81.03375 | 34978 ft | 465 kts | 14° |
| 2026-04-15 12:24 | 51.43338 | 81.07952 | 34978 ft | 465 kts | 14° |
| 2026-04-15 12:25 | 51.49147 | 81.12559 | 35006 ft | 466 kts | 14° |
| 2026-04-15 12:25 | 51.54952 | 81.17177 | 34992 ft | 466 kts | 14° |
| 2026-04-15 12:25 | 51.57894 | 81.19197 | 34987 ft | 453 kts | 6° |
| 2026-04-15 12:26 | 51.60895 | 81.20493 | 34979 ft | 439 kts | 358° |
| 2026-04-15 12:26 | 51.66888 | 81.21924 | 34981 ft | 435 kts | 356° |
| 2026-04-15 12:27 | 51.72887 | 81.23343 | 35022 ft | 436 kts | 356° |
| 2026-04-15 12:27 | 51.78894 | 81.24771 | 35009 ft | 436 kts | 356° |
| 2026-04-15 12:28 | 51.84904 | 81.26208 | 34999 ft | 436 kts | 356° |
| 2026-04-15 12:28 | 51.90911 | 81.27653 | 34994 ft | 437 kts | 356° |
| 2026-04-15 12:29 | 51.96881 | 81.29085 | 35027 ft | 437 kts | 356° |
| 2026-04-15 12:29 | 52.02898 | 81.30523 | 34987 ft | 437 kts | 356° |
| 2026-04-15 12:30 | 52.08922 | 81.31979 | 34984 ft | 438 kts | 356° |
| 2026-04-15 12:30 | 52.14945 | 81.33444 | 34977 ft | 438 kts | 356° |
| 2026-04-15 12:31 | 52.20967 | 81.34900 | 35039 ft | 438 kts | 358° |
| 2026-04-15 12:31 | 52.27000 | 81.36367 | 34973 ft | 438 kts | 358° |
| 2026-04-15 12:32 | 52.33041 | 81.37841 | 34966 ft | 439 kts | 358° |
| 2026-04-15 12:32 | 52.39084 | 81.39313 | 34966 ft | 439 kts | 358° |
| 2026-04-15 12:33 | 52.45136 | 81.40795 | 34968 ft | 440 kts | 358° |
| 2026-04-15 12:33 | 52.51187 | 81.42280 | 34990 ft | 440 kts | 358° |
| 2026-04-15 12:34 | 52.57213 | 81.43767 | 34982 ft | 440 kts | 358° |
| 2026-04-15 12:34 | 52.63275 | 81.45279 | 34976 ft | 441 kts | 358° |
| 2026-04-15 12:35 | 52.69341 | 81.46768 | 35002 ft | 441 kts | 358° |
| 2026-04-15 12:35 | 52.75411 | 81.48273 | 34968 ft | 441 kts | 359° |
| 2026-04-15 12:36 | 52.81486 | 81.49790 | 34961 ft | 441 kts | 358° |
| 2026-04-15 12:36 | 52.86532 | 81.51043 | 34952 ft | 442 kts | 359° |
| 2026-04-15 12:37 | 52.92607 | 81.52573 | 34948 ft | 442 kts | 359° |
| 2026-04-15 12:37 | 52.98687 | 81.54109 | 34980 ft | 442 kts | 360° |
| 2026-04-15 12:38 | 53.04773 | 81.55649 | 34957 ft | 443 kts | 360° |
| 2026-04-15 12:38 | 53.10869 | 81.57188 | 34958 ft | 443 kts | 360° |
| 2026-04-15 12:39 | 53.16967 | 81.58739 | 34954 ft | 444 kts | 360° |
| 2026-04-15 12:39 | 53.23074 | 81.60295 | 34975 ft | 444 kts | 0° |
| 2026-04-15 12:40 | 53.29198 | 81.61863 | 34965 ft | 445 kts | 1° |
| 2026-04-15 12:40 | 53.35276 | 81.63415 | 34960 ft | 445 kts | 0° |
| 2026-04-15 12:41 | 53.41388 | 81.64971 | 34960 ft | 445 kts | 0° |
| 2026-04-15 12:41 | 53.44449 | 81.65751 | 34678 ft | 445 kts | 0° |
| 2026-04-15 12:41 | 53.47486 | 81.66538 | 34451 ft | 437 kts | 1° |
| 2026-04-15 12:41 | 53.50480 | 81.67326 | 34219 ft | 434 kts | 1° |
| 2026-04-15 12:42 | 53.53463 | 81.68107 | 33985 ft | 434 kts | 1° |
| 2026-04-15 12:42 | 53.56444 | 81.68879 | 33498 ft | 434 kts | 1° |
| 2026-04-15 12:42 | 53.59452 | 81.69648 | 32558 ft | 440 kts | 1° |
| 2026-04-15 12:42 | 53.62494 | 81.70421 | 31681 ft | 444 kts | 1° |
| 2026-04-15 12:43 | 53.65555 | 81.71206 | 30846 ft | 446 kts | 1° |
| 2026-04-15 12:43 | 53.68638 | 81.72003 | 29842 ft | 451 kts | 1° |
| 2026-04-15 12:43 | 53.71758 | 81.72811 | 28763 ft | 455 kts | 1° |
| 2026-04-15 12:43 | 53.74878 | 81.73629 | 28015 ft | 451 kts | 1° |
| 2026-04-15 12:44 | 53.77950 | 81.74444 | 27440 ft | 444 kts | 2° |
| 2026-04-15 12:44 | 53.80989 | 81.75250 | 26805 ft | 440 kts | 2° |
| 2026-04-15 12:44 | 53.83997 | 81.76044 | 26190 ft | 435 kts | 2° |
| 2026-04-15 12:44 | 53.86934 | 81.76817 | 25582 ft | 430 kts | 2° |
| 2026-04-15 12:45 | 53.89918 | 81.77603 | 24995 ft | 426 kts | 2° |
| 2026-04-15 12:45 | 53.92790 | 81.78359 | 24411 ft | 422 kts | 2° |
| 2026-04-15 12:45 | 53.95675 | 81.79117 | 23818 ft | 418 kts | 2° |
| 2026-04-15 12:45 | 53.98533 | 81.79868 | 23201 ft | 414 kts | 4° |
| 2026-04-15 12:46 | 54.01325 | 81.81086 | 22622 ft | 415 kts | 14° |
| 2026-04-15 12:46 | 54.03953 | 81.83146 | 22074 ft | 416 kts | 24° |
| 2026-04-15 12:46 | 54.06330 | 81.85969 | 21525 ft | 418 kts | 35° |
| 2026-04-15 12:46 | 54.08475 | 81.89271 | 21005 ft | 413 kts | 37° |
| 2026-04-15 12:47 | 54.10579 | 81.92558 | 20497 ft | 408 kts | 37° |
| 2026-04-15 12:47 | 54.12653 | 81.95812 | 20000 ft | 402 kts | 37° |
| 2026-04-15 12:47 | 54.14693 | 81.99025 | 19535 ft | 397 kts | 37° |
| 2026-04-15 12:47 | 54.16707 | 82.02197 | 19052 ft | 392 kts | 37° |
| 2026-04-15 12:48 | 54.18698 | 82.05330 | 18627 ft | 388 kts | 38° |
| 2026-04-15 12:48 | 54.20672 | 82.08432 | 18163 ft | 384 kts | 38° |
| 2026-04-15 12:48 | 54.22624 | 82.11508 | 17683 ft | 379 kts | 38° |
| 2026-04-15 12:48 | 54.24553 | 82.14554 | 17246 ft | 375 kts | 38° |
| 2026-04-15 12:49 | 54.26461 | 82.17569 | 16788 ft | 372 kts | 38° |
| 2026-04-15 12:49 | 54.28356 | 82.20565 | 16325 ft | 370 kts | 38° |
| 2026-04-15 12:49 | 54.30237 | 82.23543 | 15880 ft | 367 kts | 38° |
| 2026-04-15 12:49 | 54.32078 | 82.26459 | 15420 ft | 364 kts | 38° |
| 2026-04-15 12:50 | 54.33933 | 82.29404 | 14952 ft | 362 kts | 38° |
| 2026-04-15 12:50 | 54.35770 | 82.32330 | 14480 ft | 360 kts | 38° |
| 2026-04-15 12:50 | 54.37597 | 82.35244 | 14010 ft | 358 kts | 38° |
| 2026-04-15 12:50 | 54.39416 | 82.38144 | 13508 ft | 356 kts | 38° |
| 2026-04-15 12:51 | 54.41226 | 82.41027 | 13013 ft | 353 kts | 39° |
| 2026-04-15 12:51 | 54.43019 | 82.43890 | 12532 ft | 351 kts | 39° |
| 2026-04-15 12:51 | 54.44796 | 82.46739 | 12044 ft | 348 kts | 39° |
| 2026-04-15 12:51 | 54.46562 | 82.49579 | 11538 ft | 347 kts | 39° |
| 2026-04-15 12:52 | 54.48317 | 82.52404 | 11051 ft | 345 kts | 40° |
| 2026-04-15 12:52 | 54.50061 | 82.55211 | 10675 ft | 340 kts | 40° |
| 2026-04-15 12:52 | 54.51758 | 82.57930 | 10531 ft | 326 kts | 38° |
| 2026-04-15 12:52 | 54.53536 | 82.60195 | 10429 ft | 311 kts | 30° |
| 2026-04-15 12:53 | 54.55300 | 82.62234 | 10299 ft | 301 kts | 31° |
| 2026-04-15 12:53 | 54.57017 | 82.64226 | 10057 ft | 294 kts | 31° |
| 2026-04-15 12:53 | 54.58704 | 82.66192 | 9830 ft | 291 kts | 31° |
| 2026-04-15 12:53 | 54.60380 | 82.68145 | 9697 ft | 291 kts | 31° |
| 2026-04-15 12:54 | 54.62054 | 82.70094 | 9549 ft | 290 kts | 31° |
| 2026-04-15 12:54 | 54.63723 | 82.72035 | 9241 ft | 288 kts | 31° |
| 2026-04-15 12:54 | 54.65380 | 82.73967 | 8867 ft | 286 kts | 31° |
| 2026-04-15 12:54 | 54.67025 | 82.75891 | 8490 ft | 284 kts | 31° |
| 2026-04-15 12:55 | 54.68631 | 82.77772 | 8127 ft | 282 kts | 31° |
| 2026-04-15 12:55 | 54.70251 | 82.79671 | 7761 ft | 280 kts | 31° |
| 2026-04-15 12:55 | 54.71863 | 82.81558 | 7389 ft | 279 kts | 31° |
| 2026-04-15 12:55 | 54.73461 | 82.83434 | 7096 ft | 276 kts | 31° |
| 2026-04-15 12:56 | 54.75046 | 82.85299 | 6742 ft | 275 kts | 31° |
| 2026-04-15 12:56 | 54.76624 | 82.87155 | 6387 ft | 274 kts | 31° |
| 2026-04-15 12:56 | 54.78191 | 82.88997 | 6009 ft | 272 kts | 31° |
| 2026-04-15 12:56 | 54.79751 | 82.90833 | 5660 ft | 270 kts | 31° |
| 2026-04-15 12:57 | 54.81303 | 82.92665 | 5307 ft | 268 kts | 30° |
| 2026-04-15 12:57 | 54.82837 | 82.94488 | 5016 ft | 265 kts | 33° |
| 2026-04-15 12:57 | 54.84310 | 82.96416 | 4999 ft | 266 kts | 35° |
| 2026-04-15 12:57 | 54.85754 | 82.98432 | 5014 ft | 267 kts | 36° |
| 2026-04-15 12:58 | 54.87189 | 83.00484 | 5013 ft | 266 kts | 37° |
| 2026-04-15 12:58 | 54.88617 | 83.02533 | 5013 ft | 266 kts | 37° |
| 2026-04-15 12:58 | 54.90044 | 83.04567 | 5004 ft | 263 kts | 36° |
| 2026-04-15 12:58 | 54.91557 | 83.06048 | 5008 ft | 239 kts | 11° |
| 2026-04-15 12:59 | 54.94458 | 83.05123 | 4593 ft | 211 kts | 321° |
| 2026-04-15 12:59 | 54.95449 | 83.03315 | 4215 ft | 202 kts | 310° |
| 2026-04-15 12:59 | 54.96352 | 83.01513 | 3857 ft | 192 kts | 311° |
| 2026-04-15 13:00 | 54.97203 | 82.99827 | 3574 ft | 184 kts | 311° |
| 2026-04-15 13:00 | 54.98029 | 82.98197 | 3259 ft | 176 kts | 312° |
| 2026-04-15 13:00 | 54.98822 | 82.96630 | 2971 ft | 169 kts | 313° |
| 2026-04-15 13:00 | 54.99575 | 82.95142 | 2844 ft | 157 kts | 312° |
| 2026-04-15 13:01 | 55.00274 | 82.93758 | 2731 ft | 147 kts | 313° |
| 2026-04-15 13:01 | 55.00938 | 82.92439 | 2630 ft | 143 kts | 313° |
| 2026-04-15 13:01 | 55.01589 | 82.91149 | 2517 ft | 141 kts | 313° |
| 2026-04-15 13:01 | 55.02232 | 82.89876 | 2406 ft | 139 kts | 313° |
| 2026-04-15 13:02 | 55.02818 | 82.88547 | 2325 ft | 138 kts | 302° |
| 2026-04-15 13:02 | 55.03109 | 82.86939 | 2181 ft | 143 kts | 281° |
| 2026-04-15 13:02 | 55.02984 | 82.85214 | 2088 ft | 142 kts | 272° |
| 2026-04-15 13:02 | 55.02865 | 82.83517 | 2022 ft | 140 kts | 271° |
| 2026-04-15 13:03 | 55.02732 | 82.81827 | 1995 ft | 141 kts | 271° |
| 2026-04-15 13:03 | 55.02589 | 82.80142 | 1853 ft | 140 kts | 270° |
| 2026-04-15 13:03 | 55.02444 | 82.78470 | 1694 ft | 139 kts | 270° |
| 2026-04-15 13:03 | 55.02297 | 82.76805 | 1506 ft | 139 kts | 268° |
| 2026-04-15 13:04 | 55.02149 | 82.75139 | 1297 ft | 138 kts | 268° |
| 2026-04-15 13:04 | 55.02002 | 82.73487 | 1044 ft | 140 kts | 268° |
| 2026-04-15 13:04 | 55.01849 | 82.71803 | 892 ft | 140 kts | 263° |
| 2026-04-15 13:04 | 55.01702 | 82.70152 | 659 ft | 137 kts | 263° |
| 2026-04-15 13:05 | 55.01556 | 82.68538 | 469 ft | 137 kts | 265° |
| 2026-04-15 13:05 | 55.01414 | 82.66925 | 377 ft | 128 kts | 263° |
| 2026-04-15 13:05 | 55.01305 | 82.65734 | 372 ft | 72 kts | 260° |
| 2026-04-15 13:05 | 55.01255 | 82.65188 | 373 ft | 16 kts | 261° |
| 2026-04-15 13:06 | 55.01235 | 82.65076 | 373 ft | 7 kts | 228° |
| 2026-04-15 13:06 | 55.01192 | 82.65056 | 372 ft | 5 kts | 178° |
| 2026-04-15 13:06 | 55.01168 | 82.65062 | 372 ft | 2 kts | 171° |
| 2026-04-15 13:06 | 55.01138 | 82.65070 | 373 ft | 10 kts | 171° |
| 2026-04-15 13:07 | 55.01051 | 82.65094 | 373 ft | 12 kts | 171° |
| 2026-04-15 13:07 | 55.00980 | 82.65114 | 373 ft | 9 kts | 171° |
| 2026-04-15 13:07 | 55.00933 | 82.65127 | 373 ft | 5 kts | 171° |
| 2026-04-15 13:07 | 55.00907 | 82.65136 | 373 ft | 4 kts | 163° |
| 2026-04-15 13:08 | 55.00884 | 82.65212 | 373 ft | 13 kts | 88° |
| 2026-04-15 13:08 | 55.00895 | 82.65403 | 373 ft | 15 kts | 81° |
| 2026-04-15 13:08 | 55.00909 | 82.65566 | 373 ft | 12 kts | 81° |
| 2026-04-15 13:08 | 55.00920 | 82.65685 | 373 ft | 8 kts | 81° |
| 2026-04-15 13:09 | 55.00928 | 82.65768 | 373 ft | 9 kts | 81° |
| 2026-04-15 13:09 | 55.00944 | 82.65947 | 373 ft | 19 kts | 82° |
| 2026-04-15 13:09 | 55.00964 | 82.66116 | 373 ft | 10 kts | 65° |
| 2026-04-15 13:09 | 55.00985 | 82.66205 | 373 ft | 8 kts | 70° |
| 2026-04-15 13:10 | 55.01015 | 82.66352 | 373 ft | 19 kts | 70° |
| 2026-04-15 13:10 | 55.01062 | 82.66559 | 373 ft | 17 kts | 67° |
| 2026-04-15 13:10 | 55.01096 | 82.66724 | 373 ft | 12 kts | 80° |
| 2026-04-15 13:10 | 55.01094 | 82.66841 | 373 ft | 7 kts | 104° |
| 2026-04-15 13:11 | 55.01079 | 82.66938 | 373 ft | 10 kts | 88° |
| 2026-04-15 13:11 | 55.01087 | 82.67034 | 373 ft | 6 kts | 82° |
| 2026-04-15 13:11 | 55.01090 | 82.67079 | 373 ft | 4 kts | 86° |
| 2026-04-15 13:11 | 55.01072 | 82.67125 | 373 ft | 3 kts | 145° |
| 2026-04-15 13:12 | 55.01045 | 82.67137 | 373 ft | 4 kts | 169° |
| 2026-04-15 13:12 | 55.01034 | 82.67140 | 373 ft | 2 kts | 171° |
| 2026-04-15 13:12 | 55.01021 | 82.67143 | 373 ft | 0 kts | 172° |